Flight Track Log - Related Links

Times and Time Zones

All times are in EDT time to prevent confusion due to time zone crossing. See the CCA1754 flight status page for this flight to view local times or setup timezone preferences in your user account.

Time Position Orientation Groundspeed Altitude Reporting Facility
EDT Latitude Longitude Course Direction KTS MPH feet Rate Location/Type
Thu 09:14:00 AM 25.3418 103.5815 68° East  Level Estimated
Thu 09:15:00 AM 25.3894 103.7123 68° East  Level Estimated
Thu 09:16:00 AM 25.4369 103.8432 68° East  Level Estimated
Thu 09:17:00 AM 25.4843 103.9742 68° East  Level Estimated
Thu 09:18:00 AM 25.5315 104.1053 68° East  Level Estimated
Thu 09:19:00 AM 25.5787 104.2365 68° East  Level Estimated
Thu 09:20:00 AM 25.6257 104.3678 68° East  Level Estimated
Thu 09:21:00 AM 25.6726 104.4992 68° East  Level Estimated
Thu 09:22:00 AM 25.7194 104.6307 68° East  Level Estimated
Thu 09:23:00 AM 25.7661 104.7623 68° East  Level Estimated
Thu 09:24:00 AM 25.8127 104.8940 69° East  Level Estimated
Thu 09:25:00 AM 25.8591 105.0258 69° East  Level Estimated
Thu 09:26:00 AM 25.9055 105.1578 69° East  Level Estimated
Thu 09:27:00 AM 25.9517 105.2898 69° East  Level Estimated
Thu 09:28:00 AM 25.9978 105.4219 69° East  Level Estimated
Thu 09:29:00 AM 26.0437 105.5541 69° East  Level Estimated
Thu 09:30:00 AM 26.0896 105.6865 69° East  Level Estimated
Thu 09:31:00 AM 26.1353 105.8189 69° East  Level Estimated
Thu 09:32:00 AM 26.1809 105.9514 69° East  Level Estimated
Thu 09:33:00 AM 26.2264 106.0841 69° East  Level Estimated
Thu 09:34:00 AM 26.2718 106.2169 69° East  Level Estimated
Thu 09:35:00 AM 26.3170 106.3497 69° East  Level Estimated
Thu 09:36:00 AM 26.3621 106.4827 69° East  Level Estimated
Thu 09:37:00 AM 26.4071 106.6157 69° East  Level Estimated
Thu 09:38:00 AM 26.4520 106.7489 69° East  Level Estimated
Thu 09:39:00 AM 26.4967 106.8821 69° East  Level Estimated
Thu 09:40:00 AM 26.5413 107.0155 69° East  Level Estimated
Thu 09:41:00 AM 26.5858 107.1490 70° East  Level Estimated
Thu 09:42:00 AM 26.6302 107.2826 70° East  Level Estimated
Thu 09:43:00 AM 26.6745 107.4163 70° East  Level Estimated
Thu 09:44:00 AM 26.7186 107.5500 70° East  Level Estimated
Thu 09:45:00 AM 26.7626 107.6839 70° East  Level Estimated
Thu 09:46:00 AM 26.8065 107.8179 70° East  Level Estimated
Thu 09:47:00 AM 26.8502 107.9520 70° East  Level Estimated
Thu 09:48:00 AM 26.8938 108.0862 70° East  Level Estimated
Thu 09:49:00 AM 26.9373 108.2205 70° East  Level Estimated
Thu 09:50:00 AM 26.9807 108.3549 70° East  Level Estimated
Thu 09:51:00 AM 27.0239 108.4894 70° East  Level Estimated
Thu 09:52:00 AM 27.0670 108.6240 70° East  Level Estimated
Thu 09:53:00 AM 27.1100 108.7588 70° East  Level Estimated
Thu 09:54:00 AM 27.1529 108.8936 70° East  Level Estimated
Thu 09:55:00 AM 27.1956 109.0285 70° East  Level Estimated
Thu 09:56:00 AM 27.2382 109.1635 70° East  Level Estimated
Thu 09:57:00 AM 27.2807 109.2987 70° East  Level Estimated
Thu 09:58:00 AM 27.3230 109.4339 71° East  Level Estimated
Thu 09:59:00 AM 27.3652 109.5692 71° East  Level Estimated
Thu 10:00:00 AM 27.4073 109.7047 71° East  Level Estimated
Thu 10:01:00 AM 27.4492 109.8402 71° East  Level Estimated
Thu 10:02:00 AM 27.4910 109.9759 71° East  Level Estimated
Thu 10:03:00 AM 27.5327 110.1116 71° East  Level Estimated
Thu 10:04:00 AM 27.5743 110.2475 71° East  Level Estimated
Thu 10:05:00 AM 27.6157 110.3834 71° East  Level Estimated
Thu 10:06:00 AM 27.6570 110.5195 71° East  Level Estimated
Thu 10:07:00 AM 27.6981 110.6556 71° East  Level Estimated
Thu 10:08:00 AM 27.7391 110.7919 71° East  Level Estimated
Thu 10:09:00 AM 27.7800 110.9283 71° East  Level Estimated
Thu 10:10:00 AM 27.8208 111.0647 71° East  Level Estimated
Thu 10:11:00 AM 27.8614 111.2013 71° East  Level Estimated
Thu 10:12:00 AM 27.9019 111.3380 71° East  Level Estimated
Thu 10:13:00 AM 27.9422 111.4747 72° East  Level Estimated
Thu 10:14:00 AM 27.9824 111.6116 72° East  Level Estimated
Thu 10:15:00 AM 28.0225 111.7486 72° East  Level Estimated
Thu 10:16:00 AM 28.0624 111.8857 72° East  Level Estimated
Thu 10:17:00 AM 28.1022 112.0229 72° East  Level Estimated
Thu 10:18:00 AM 28.1419 112.1601 72° East  Level Estimated
Thu 10:19:00 AM 28.1814 112.2975 72° East  Level Estimated
Thu 10:20:00 AM 28.2208 112.4350 72° East  Level Estimated
Thu 10:21:00 AM 28.2601 112.5726 72° East  Level Estimated
Thu 10:22:00 AM 28.2992 112.7103 72° East  Level Estimated
Thu 10:23:00 AM 28.3382 112.8481 72° East  Level Estimated
Thu 10:24:00 AM 28.3770 112.9860 72° East  Level Estimated
Thu 10:25:00 AM 28.4157 113.1240 72° East  Level Estimated
Thu 10:26:00 AM 28.4543 113.2620 72° East  Level Estimated
Thu 10:27:00 AM 28.4927 113.4002 72° East  Level Estimated
Thu 10:28:00 AM 28.5310 113.5385 72° East  Level Estimated
Thu 10:29:00 AM 28.5691 113.6769 73° East  Level Estimated
Thu 10:30:00 AM 28.6071 113.8154 73° East  Level Estimated
Thu 10:31:00 AM 28.6450 113.9540 73° East  Level Estimated
Thu 10:32:00 AM 28.6827 114.0927 73° East  Level Estimated
Thu 10:33:00 AM 28.7203 114.2315 73° East  Level Estimated
Thu 10:34:00 AM 28.7577 114.3704 73° East  Level Estimated
Thu 10:35:00 AM 28.7950 114.5094 73° East  Level Estimated
Thu 10:36:00 AM 28.8322 114.6485 73° East  Level Estimated
Thu 10:37:00 AM 28.8692 114.7876 73° East  Level Estimated
Thu 10:38:00 AM 28.9061 114.9269 73° East  Level Estimated
Thu 10:39:00 AM 28.9428 115.0663 73° East  Level Estimated
Thu 10:40:00 AM 28.9794 115.2058 73° East  Level Estimated
Thu 10:41:00 AM 29.0158 115.3454 73° East  Level Estimated
Thu 10:42:00 AM 29.0521 115.4851 73° East  Level Estimated
Thu 10:43:00 AM 29.0882 115.6249 73° East  Level Estimated
Thu 10:44:00 AM 29.1242 115.7647 74° East  Level Estimated
Thu 10:45:00 AM 29.1601 115.9047 74° East  Level Estimated
Thu 10:46:00 AM 29.1958 116.0448 74° East  Level Estimated
Thu 10:47:00 AM 29.2314 116.1850 74° East  Level Estimated
Thu 10:48:00 AM 29.2668 116.3252 74° East  Level Estimated
Thu 10:49:00 AM 29.3021 116.4656 74° East  Level Estimated
Thu 10:50:00 AM 29.3372 116.6061 74° East  Level Estimated
Thu 10:51:00 AM 29.3722 116.7466 74° East  Level Estimated
Thu 10:52:00 AM 29.4070 116.8873 74° East  Level Estimated
Thu 10:53:00 AM 29.4417 117.0280 74° East  Level Estimated
Thu 10:54:00 AM 29.4762 117.1689 74° East  Level Estimated
Thu 10:55:00 AM 29.5106 117.3098 74° East  Level Estimated
Thu 10:56:00 AM 29.5448 117.4509 74° East  Level Estimated
Thu 10:57:00 AM 29.5789 117.5920 74° East  Level Estimated
Thu 10:58:00 AM 29.6129 117.7333 75° East  Level Estimated
Thu 10:59:00 AM 29.6467 117.8746 75° East  Level Estimated
Thu 11:00:00 AM 29.6803 118.0160 75° East  Level Estimated
Thu 11:01:00 AM 29.7138 118.1575 75° East  Level Estimated
Thu 11:02:00 AM 29.7471 118.2991 75° East  Level Estimated
Thu 11:03:00 AM 29.7803 118.4408 75° East  Level Estimated
Thu 11:04:00 AM 29.8134 118.5826 75° East  Level Estimated
Thu 11:05:00 AM 29.8462 118.7245 75° East  Level Estimated
Thu 11:06:00 AM 29.8790 118.8665 75° East  Level Estimated
Thu 11:07:00 AM 29.9116 119.0086 75° East  Level Estimated
Thu 11:08:00 AM 29.9440 119.1507 75° East  Level Estimated
Thu 11:09:00 AM 29.9763 119.2930 75° East  Level Estimated
Thu 11:10:00 AM 30.0084 119.4354 75° East  Level Estimated
Thu 11:11:00 AM 30.0403 119.5778 75° East  Level Estimated
Thu 11:12:00 AM 30.0722 119.7204 76° East  Level Estimated
Thu 11:13:00 AM 30.1038 119.8630 76° East  Level Estimated
Thu 11:14:00 AM 30.1353 120.0057 76° East  Level Estimated
Thu 11:15:00 AM 30.1667 120.1485 76° East  Level Estimated
Thu 11:16:00 AM 30.1979 120.2914 76° East  Level Estimated
Thu 11:17:00 AM 30.2283 120.4317 76° East  Level Estimated
Thu 11:18:00 AM 30.2283 120.4317 319° Northwest  Level Estimated
Thu 11:19:00 AM 30.2283 120.4317 319° Northwest  Level Estimated
Thu 11:20:00 AM 30.2283 120.4317 319° Northwest  Level Estimated
Thu 11:21:00 AM 30.2283 120.4317 319° Northwest  Level Estimated
Thu 11:22:00 AM 30.2283 120.4317 319° Northwest  Level Estimated
Thu 11:23:00 AM 30.2283 120.4317 319° Northwest  Level Estimated
Thu 11:24:00 AM 30.2283 120.4317 319° Northwest  Level Estimated
Thu 11:25:00 AM 30.2283 120.4317 319° Northwest  Level Estimated
Thu 11:26:00 AM 30.2283 120.4317 319° Northwest  Level Estimated
Thu 11:27:00 AM 30.2283 120.4317 319° Northwest  Level Estimated
Thu 11:28:00 AM 30.2283 120.4317 319° Northwest  Level Estimated
Thu 11:29:00 AM 30.2283 120.4317 319° Northwest  Level Estimated
Thu 11:30:00 AM 30.2283 120.4317 319° Northwest  Level Estimated
Thu 11:31:00 AM 30.2283 120.4317 319° Northwest  Level Estimated
Thu 11:32:00 AM 30.2283 120.4317 319° Northwest  Level Estimated
Thu 11:33:00 AM 30.2283 120.4317 319° Northwest  Level Estimated

Login

Don't have an account? Register now (free) for customized features, flight alerts, and more!